sensor_id;sensor_type;location;lat;lon;timestamp;temperature;humidity
67101;DHT22;54019;61.746;16.106;2023-04-03T00:00:34;23.00;19.80
67101;DHT22;54019;61.746;16.106;2023-04-03T00:03:00;23.10;19.30
67101;DHT22;54019;61.746;16.106;2023-04-03T00:05:25;23.00;19.20
67101;DHT22;54019;61.746;16.106;2023-04-03T00:07:51;23.10;19.30
67101;DHT22;54019;61.746;16.106;2023-04-03T00:10:17;23.00;19.30
67101;DHT22;54019;61.746;16.106;2023-04-03T00:12:43;23.00;19.30
67101;DHT22;54019;61.746;16.106;2023-04-03T00:15:11;23.00;19.30
67101;DHT22;54019;61.746;16.106;2023-04-03T00:17:36;23.00;19.40
67101;DHT22;54019;61.746;16.106;2023-04-03T00:20:03;22.90;19.40
67101;DHT22;54019;61.746;16.106;2023-04-03T00:22:29;22.90;19.40
67101;DHT22;54019;61.746;16.106;2023-04-03T00:24:55;22.90;19.40
67101;DHT22;54019;61.746;16.106;2023-04-03T00:27:20;22.90;19.30
67101;DHT22;54019;61.746;16.106;2023-04-03T00:29:46;22.90;19.30
67101;DHT22;54019;61.746;16.106;2023-04-03T00:32:14;23.00;19.30
67101;DHT22;54019;61.746;16.106;2023-04-03T00:34:39;23.00;19.20
67101;DHT22;54019;61.746;16.106;2023-04-03T00:37:05;23.00;19.10
67101;DHT22;54019;61.746;16.106;2023-04-03T00:39:31;23.10;19.10
67101;DHT22;54019;61.746;16.106;2023-04-03T00:41:57;23.10;19.10
67101;DHT22;54019;61.746;16.106;2023-04-03T00:47:29;23.10;19.10
67101;DHT22;54019;61.746;16.106;2023-04-03T00:49:55;23.00;19.10
67101;DHT22;54019;61.746;16.106;2023-04-03T00:52:25;23.00;19.10
67101;DHT22;54019;61.746;16.106;2023-04-03T00:54:56;23.00;19.10
67101;DHT22;54019;61.746;16.106;2023-04-03T00:57:22;22.90;19.10
67101;DHT22;54019;61.746;16.106;2023-04-03T00:59:51;22.90;19.20
67101;DHT22;54019;61.746;16.106;2023-04-03T01:02:19;22.90;19.30
67101;DHT22;54019;61.746;16.106;2023-04-03T01:04:46;22.90;19.30
67101;DHT22;54019;61.746;16.106;2023-04-03T01:07:15;22.90;19.20
67101;DHT22;54019;61.746;16.106;2023-04-03T01:09:42;22.90;19.20
67101;DHT22;54019;61.746;16.106;2023-04-03T01:12:14;23.00;19.10
67101;DHT22;54019;61.746;16.106;2023-04-03T01:14:39;23.00;19.10
67101;DHT22;54019;61.746;16.106;2023-04-03T01:17:24;23.00;19.00
67101;DHT22;54019;61.746;16.106;2023-04-03T01:22:50;23.10;19.00
67101;DHT22;54019;61.746;16.106;2023-04-03T01:25:20;23.10;19.00
67101;DHT22;54019;61.746;16.106;2023-04-03T01:27:45;23.00;19.00
67101;DHT22;54019;61.746;16.106;2023-04-03T01:30:13;23.00;19.00
67101;DHT22;54019;61.746;16.106;2023-04-03T01:32:41;22.90;19.00
67101;DHT22;54019;61.746;16.106;2023-04-03T01:35:08;22.90;19.10
67101;DHT22;54019;61.746;16.106;2023-04-03T01:37:37;22.80;19.00
67101;DHT22;54019;61.746;16.106;2023-04-03T01:40:03;22.90;19.10
67101;DHT22;54019;61.746;16.106;2023-04-03T01:42:29;22.90;19.10
67101;DHT22;54019;61.746;16.106;2023-04-03T01:44:55;22.90;19.00
67101;DHT22;54019;61.746;16.106;2023-04-03T01:47:21;22.90;19.00
67101;DHT22;54019;61.746;16.106;2023-04-03T01:49:48;22.90;18.90
67101;DHT22;54019;61.746;16.106;2023-04-03T01:52:14;23.00;18.90
67101;DHT22;54019;61.746;16.106;2023-04-03T01:54:40;23.00;19.40
67101;DHT22;54019;61.746;16.106;2023-04-03T01:57:06;23.00;18.80
67101;DHT22;54019;61.746;16.106;2023-04-03T01:59:31;23.00;18.80
67101;DHT22;54019;61.746;16.106;2023-04-03T02:01:57;23.00;18.80
67101;DHT22;54019;61.746;16.106;2023-04-03T02:04:23;23.00;18.80
67101;DHT22;54019;61.746;16.106;2023-04-03T02:06:50;23.00;18.80
67101;DHT22;54019;61.746;16.106;2023-04-03T02:09:16;23.00;18.90
67101;DHT22;54019;61.746;16.106;2023-04-03T02:11:42;22.90;18.90
67101;DHT22;54019;61.746;16.106;2023-04-03T02:14:08;22.90;18.90
67101;DHT22;54019;61.746;16.106;2023-04-03T02:16:33;22.90;18.90
67101;DHT22;54019;61.746;16.106;2023-04-03T02:18:59;22.80;18.90
67101;DHT22;54019;61.746;16.106;2023-04-03T02:21:25;22.80;18.90
67101;DHT22;54019;61.746;16.106;2023-04-03T02:23:52;22.80;18.90
67101;DHT22;54019;61.746;16.106;2023-04-03T02:26:18;22.90;18.90
67101;DHT22;54019;61.746;16.106;2023-04-03T02:28:44;22.90;18.90
67101;DHT22;54019;61.746;16.106;2023-04-03T02:31:10;22.90;18.80
67101;DHT22;54019;61.746;16.106;2023-04-03T02:33:36;22.90;18.80
67101;DHT22;54019;61.746;16.106;2023-04-03T02:36:02;23.00;18.70
67101;DHT22;54019;61.746;16.106;2023-04-03T02:38:28;23.00;18.70
67101;DHT22;54019;61.746;16.106;2023-04-03T02:41:01;23.00;18.60
67101;DHT22;54019;61.746;16.106;2023-04-03T02:43:27;23.00;18.60
67101;DHT22;54019;61.746;16.106;2023-04-03T02:45:53;23.00;18.70
67101;DHT22;54019;61.746;16.106;2023-04-03T02:48:21;22.90;18.70
67101;DHT22;54019;61.746;16.106;2023-04-03T02:50:47;22.90;18.80
67101;DHT22;54019;61.746;16.106;2023-04-03T02:53:13;22.90;18.80
67101;DHT22;54019;61.746;16.106;2023-04-03T02:55:39;22.80;18.80
67101;DHT22;54019;61.746;16.106;2023-04-03T02:58:06;22.80;18.80
67101;DHT22;54019;61.746;16.106;2023-04-03T03:00:32;22.80;18.80
67101;DHT22;54019;61.746;16.106;2023-04-03T03:02:58;22.80;18.80
67101;DHT22;54019;61.746;16.106;2023-04-03T03:05:24;22.80;18.80
67101;DHT22;54019;61.746;16.106;2023-04-03T03:07:50;22.80;18.70
67101;DHT22;54019;61.746;16.106;2023-04-03T03:10:16;22.90;18.70
67101;DHT22;54019;61.746;16.106;2023-04-03T03:12:41;22.90;18.70
67101;DHT22;54019;61.746;16.106;2023-04-03T03:15:09;23.00;18.60
67101;DHT22;54019;61.746;16.106;2023-04-03T03:17:35;23.00;18.60
67101;DHT22;54019;61.746;16.106;2023-04-03T03:20:01;23.00;18.60
67101;DHT22;54019;61.746;16.106;2023-04-03T03:22:28;23.00;18.60
67101;DHT22;54019;61.746;16.106;2023-04-03T03:24:54;23.00;18.70
67101;DHT22;54019;61.746;16.106;2023-04-03T03:27:20;23.00;19.00
67101;DHT22;54019;61.746;16.106;2023-04-03T03:29:45;23.00;19.10
67101;DHT22;54019;61.746;16.106;2023-04-03T03:32:13;23.00;18.90
67101;DHT22;54019;61.746;16.106;2023-04-03T03:34:38;22.90;18.60
67101;DHT22;54019;61.746;16.106;2023-04-03T03:37:04;22.80;18.40
67101;DHT22;54019;61.746;16.106;2023-04-03T03:39:30;22.80;18.40
67101;DHT22;54019;61.746;16.106;2023-04-03T03:41:56;22.80;18.40
67101;DHT22;54019;61.746;16.106;2023-04-03T03:44:21;22.80;18.40
67101;DHT22;54019;61.746;16.106;2023-04-03T03:46:47;22.80;18.40
67101;DHT22;54019;61.746;16.106;2023-04-03T03:49:15;22.80;18.40
67101;DHT22;54019;61.746;16.106;2023-04-03T03:51:41;22.80;18.30
67101;DHT22;54019;61.746;16.106;2023-04-03T03:54:07;22.80;18.30
67101;DHT22;54019;61.746;16.106;2023-04-03T03:56:34;22.90;18.30
67101;DHT22;54019;61.746;16.106;2023-04-03T03:59:00;22.90;18.20
67101;DHT22;54019;61.746;16.106;2023-04-03T04:01:26;23.00;18.20
67101;DHT22;54019;61.746;16.106;2023-04-03T04:03:51;22.90;18.40
67101;DHT22;54019;61.746;16.106;2023-04-03T04:06:19;22.90;19.00
67101;DHT22;54019;61.746;16.106;2023-04-03T04:08:45;23.00;18.70
67101;DHT22;54019;61.746;16.106;2023-04-03T04:11:10;23.00;18.90
67101;DHT22;54019;61.746;16.106;2023-04-03T04:13:36;23.00;19.20
67101;DHT22;54019;61.746;16.106;2023-04-03T04:16:02;23.00;20.40
67101;DHT22;54019;61.746;16.106;2023-04-03T04:18:28;22.90;20.90
67101;DHT22;54019;61.746;16.106;2023-04-03T04:20:54;22.90;21.10
67101;DHT22;54019;61.746;16.106;2023-04-03T04:23:21;22.80;21.60
67101;DHT22;54019;61.746;16.106;2023-04-03T04:25:47;22.80;21.40
67101;DHT22;54019;61.746;16.106;2023-04-03T04:28:13;22.80;20.60
67101;DHT22;54019;61.746;16.106;2023-04-03T04:30:39;22.90;20.50
67101;DHT22;54019;61.746;16.106;2023-04-03T04:33:05;22.90;20.30
67101;DHT22;54019;61.746;16.106;2023-04-03T04:35:31;23.00;20.00
67101;DHT22;54019;61.746;16.106;2023-04-03T04:37:57;23.00;19.90
67101;DHT22;54019;61.746;16.106;2023-04-03T04:40:24;23.00;19.90
67101;DHT22;54019;61.746;16.106;2023-04-03T04:42:50;23.10;19.90
67101;DHT22;54019;61.746;16.106;2023-04-03T04:45:16;23.10;19.80
67101;DHT22;54019;61.746;16.106;2023-04-03T04:47:42;23.20;19.80
67101;DHT22;54019;61.746;16.106;2023-04-03T04:50:08;23.10;19.70
67101;DHT22;54019;61.746;16.106;2023-04-03T04:52:34;23.10;19.80
67101;DHT22;54019;61.746;16.106;2023-04-03T04:55:00;23.10;19.90
67101;DHT22;54019;61.746;16.106;2023-04-03T04:57:27;23.10;19.80
67101;DHT22;54019;61.746;16.106;2023-04-03T04:59:53;23.00;19.80
67101;DHT22;54019;61.746;16.106;2023-04-03T05:02:19;23.00;19.70
67101;DHT22;54019;61.746;16.106;2023-04-03T05:04:44;23.00;19.70
67101;DHT22;54019;61.746;16.106;2023-04-03T05:07:10;23.10;19.70
67101;DHT22;54019;61.746;16.106;2023-04-03T05:09:36;23.20;19.50
67101;DHT22;54019;61.746;16.106;2023-04-03T05:12:02;23.20;19.50
67101;DHT22;54019;61.746;16.106;2023-04-03T05:14:29;23.20;19.40
67101;DHT22;54019;61.746;16.106;2023-04-03T05:16:55;23.30;19.40
67101;DHT22;54019;61.746;16.106;2023-04-03T05:19:21;23.40;19.30
67101;DHT22;54019;61.746;16.106;2023-04-03T05:21:47;23.40;19.20
67101;DHT22;54019;61.746;16.106;2023-04-03T05:24:13;23.40;19.10
67101;DHT22;54019;61.746;16.106;2023-04-03T05:26:39;23.40;19.20
67101;DHT22;54019;61.746;16.106;2023-04-03T05:29:05;23.40;19.20
67101;DHT22;54019;61.746;16.106;2023-04-03T05:31:32;23.40;19.20
67101;DHT22;54019;61.746;16.106;2023-04-03T05:33:58;23.30;19.30
67101;DHT22;54019;61.746;16.106;2023-04-03T05:36:24;23.40;19.60
67101;DHT22;54019;61.746;16.106;2023-04-03T05:38:49;23.40;19.60
67101;DHT22;54019;61.746;16.106;2023-04-03T05:41:15;23.40;19.50
67101;DHT22;54019;61.746;16.106;2023-04-03T05:43:41;23.50;19.50
67101;DHT22;54019;61.746;16.106;2023-04-03T05:46:10;23.50;19.50
67101;DHT22;54019;61.746;16.106;2023-04-03T05:48:37;23.50;19.40
67101;DHT22;54019;61.746;16.106;2023-04-03T05:51:03;23.60;19.50
67101;DHT22;54019;61.746;16.106;2023-04-03T05:53:31;23.60;19.40
67101;DHT22;54019;61.746;16.106;2023-04-03T05:55:58;23.70;19.50
67101;DHT22;54019;61.746;16.106;2023-04-03T05:58:23;23.80;19.40
67101;DHT22;54019;61.746;16.106;2023-04-03T06:00:49;23.80;19.60
67101;DHT22;54019;61.746;16.106;2023-04-03T06:03:15;23.80;19.70
67101;DHT22;54019;61.746;16.106;2023-04-03T06:05:42;23.80;19.60
67101;DHT22;54019;61.746;16.106;2023-04-03T06:08:08;23.80;19.30
67101;DHT22;54019;61.746;16.106;2023-04-03T06:10:34;23.80;19.10
67101;DHT22;54019;61.746;16.106;2023-04-03T06:13:00;23.80;19.10
67101;DHT22;54019;61.746;16.106;2023-04-03T06:15:26;23.80;19.10
67101;DHT22;54019;61.746;16.106;2023-04-03T06:17:52;23.80;19.00
67101;DHT22;54019;61.746;16.106;2023-04-03T06:20:18;23.80;18.90
67101;DHT22;54019;61.746;16.106;2023-04-03T06:22:45;23.80;18.90
67101;DHT22;54019;61.746;16.106;2023-04-03T06:25:11;23.90;18.90
67101;DHT22;54019;61.746;16.106;2023-04-03T06:27:37;24.00;18.80
67101;DHT22;54019;61.746;16.106;2023-04-03T06:30:04;24.00;18.80
67101;DHT22;54019;61.746;16.106;2023-04-03T06:32:30;24.00;18.70
67101;DHT22;54019;61.746;16.106;2023-04-03T06:34:56;24.20;18.60
67101;DHT22;54019;61.746;16.106;2023-04-03T06:37:23;24.20;18.50
67101;DHT22;54019;61.746;16.106;2023-04-03T06:39:50;24.20;18.50
67101;DHT22;54019;61.746;16.106;2023-04-03T06:42:15;24.20;18.60
67101;DHT22;54019;61.746;16.106;2023-04-03T06:44:41;24.30;18.70
67101;DHT22;54019;61.746;16.106;2023-04-03T06:47:10;24.20;18.60
67101;DHT22;54019;61.746;16.106;2023-04-03T06:49:37;24.30;18.70
67101;DHT22;54019;61.746;16.106;2023-04-03T06:52:03;24.20;18.50
67101;DHT22;54019;61.746;16.106;2023-04-03T06:54:29;24.20;18.80
67101;DHT22;54019;61.746;16.106;2023-04-03T06:56:56;24.20;18.90
67101;DHT22;54019;61.746;16.106;2023-04-03T06:59:22;24.20;19.00
67101;DHT22;54019;61.746;16.106;2023-04-03T07:01:47;24.20;18.90
67101;DHT22;54019;61.746;16.106;2023-04-03T07:04:13;24.20;18.90
67101;DHT22;54019;61.746;16.106;2023-04-03T07:06:39;24.20;18.90
67101;DHT22;54019;61.746;16.106;2023-04-03T07:09:05;24.30;19.20
67101;DHT22;54019;61.746;16.106;2023-04-03T07:11:30;24.40;19.00
67101;DHT22;54019;61.746;16.106;2023-04-03T07:13:58;24.40;18.90
67101;DHT22;54019;61.746;16.106;2023-04-03T07:16:23;24.40;18.70
67101;DHT22;54019;61.746;16.106;2023-04-03T07:18:49;24.50;18.70
67101;DHT22;54019;61.746;16.106;2023-04-03T07:21:15;24.50;18.70
67101;DHT22;54019;61.746;16.106;2023-04-03T07:23:41;24.50;18.70
67101;DHT22;54019;61.746;16.106;2023-04-03T07:26:07;24.50;18.70
67101;DHT22;54019;61.746;16.106;2023-04-03T07:28:33;24.50;18.80
67101;DHT22;54019;61.746;16.106;2023-04-03T07:31:03;24.40;18.70
67101;DHT22;54019;61.746;16.106;2023-04-03T07:33:29;24.40;18.80
67101;DHT22;54019;61.746;16.106;2023-04-03T07:35:55;24.40;18.80
67101;DHT22;54019;61.746;16.106;2023-04-03T07:38:21;24.40;18.90
67101;DHT22;54019;61.746;16.106;2023-04-03T07:40:47;24.40;18.80
67101;DHT22;54019;61.746;16.106;2023-04-03T07:43:13;24.40;18.80
67101;DHT22;54019;61.746;16.106;2023-04-03T07:45:39;24.50;18.80
67101;DHT22;54019;61.746;16.106;2023-04-03T07:48:07;24.50;18.80
67101;DHT22;54019;61.746;16.106;2023-04-03T07:50:33;24.60;18.70
67101;DHT22;54019;61.746;16.106;2023-04-03T07:52:59;24.70;18.60
67101;DHT22;54019;61.746;16.106;2023-04-03T07:55:25;24.60;18.60
67101;DHT22;54019;61.746;16.106;2023-04-03T07:57:51;24.70;18.70
67101;DHT22;54019;61.746;16.106;2023-04-03T08:00:17;24.60;18.60
67101;DHT22;54019;61.746;16.106;2023-04-03T08:02:43;24.50;18.30
67101;DHT22;54019;61.746;16.106;2023-04-03T08:05:11;24.50;18.50
67101;DHT22;54019;61.746;16.106;2023-04-03T08:07:37;24.40;18.50
67101;DHT22;54019;61.746;16.106;2023-04-03T08:10:03;24.40;19.40
67101;DHT22;54019;61.746;16.106;2023-04-03T08:12:29;24.50;19.20
67101;DHT22;54019;61.746;16.106;2023-04-03T08:14:55;24.40;19.30
67101;DHT22;54019;61.746;16.106;2023-04-03T08:17:20;24.50;19.40
67101;DHT22;54019;61.746;16.106;2023-04-03T08:19:46;24.50;19.60
67101;DHT22;54019;61.746;16.106;2023-04-03T08:22:13;24.70;20.00
67101;DHT22;54019;61.746;16.106;2023-04-03T08:24:39;24.80;21.10
67101;DHT22;54019;61.746;16.106;2023-04-03T08:27:05;24.80;22.00
67101;DHT22;54019;61.746;16.106;2023-04-03T08:29:31;24.90;22.90
67101;DHT22;54019;61.746;16.106;2023-04-03T08:31:56;24.90;22.20
67101;DHT22;54019;61.746;16.106;2023-04-03T08:34:22;24.80;22.70
67101;DHT22;54019;61.746;16.106;2023-04-03T08:36:48;24.90;23.50
67101;DHT22;54019;61.746;16.106;2023-04-03T08:39:16;24.90;24.90
67101;DHT22;54019;61.746;16.106;2023-04-03T08:41:43;24.90;24.30
67101;DHT22;54019;61.746;16.106;2023-04-03T08:44:17;24.90;25.80
67101;DHT22;54019;61.746;16.106;2023-04-03T08:46:58;24.80;25.50
67101;DHT22;54019;61.746;16.106;2023-04-03T08:49:28;24.90;27.20
67101;DHT22;54019;61.746;16.106;2023-04-03T08:51:55;24.90;25.00
67101;DHT22;54019;61.746;16.106;2023-04-03T08:54:29;24.90;24.80
67101;DHT22;54019;61.746;16.106;2023-04-03T08:56:57;24.80;24.80
67101;DHT22;54019;61.746;16.106;2023-04-03T08:59:28;24.90;25.00
67101;DHT22;54019;61.746;16.106;2023-04-03T09:01:56;24.90;25.00
67101;DHT22;54019;61.746;16.106;2023-04-03T09:04:24;24.90;24.90
67101;DHT22;54019;61.746;16.106;2023-04-03T09:06:55;25.00;24.70
67101;DHT22;54019;61.746;16.106;2023-04-03T09:09:31;24.90;24.40
67101;DHT22;54019;61.746;16.106;2023-04-03T09:12:03;25.00;24.10
67101;DHT22;54019;61.746;16.106;2023-04-03T09:14:35;25.00;23.90
67101;DHT22;54019;61.746;16.106;2023-04-03T09:17:08;25.00;23.70
67101;DHT22;54019;61.746;16.106;2023-04-03T09:19:40;25.00;23.50
67101;DHT22;54019;61.746;16.106;2023-04-03T09:22:16;25.00;23.40
67101;DHT22;54019;61.746;16.106;2023-04-03T09:24:45;25.00;23.10
67101;DHT22;54019;61.746;16.106;2023-04-03T09:27:12;24.90;22.80
67101;DHT22;54019;61.746;16.106;2023-04-03T09:29:40;24.80;22.60
67101;DHT22;54019;61.746;16.106;2023-04-03T09:32:19;24.80;22.80
67101;DHT22;54019;61.746;16.106;2023-04-03T09:34:48;24.60;22.20
67101;DHT22;54019;61.746;16.106;2023-04-03T09:37:34;24.60;22.80
67101;DHT22;54019;61.746;16.106;2023-04-03T09:40:02;24.60;22.40
67101;DHT22;54019;61.746;16.106;2023-04-03T09:42:30;24.60;23.00
67101;DHT22;54019;61.746;16.106;2023-04-03T09:44:57;24.70;22.50
67101;DHT22;54019;61.746;16.106;2023-04-03T09:47:25;24.80;22.40
67101;DHT22;54019;61.746;16.106;2023-04-03T09:49:52;24.80;22.40
67101;DHT22;54019;61.746;16.106;2023-04-03T09:52:33;24.80;21.90
67101;DHT22;54019;61.746;16.106;2023-04-03T09:55:06;24.80;22.40
67101;DHT22;54019;61.746;16.106;2023-04-03T09:57:33;24.90;22.30
67101;DHT22;54019;61.746;16.106;2023-04-03T10:00:00;24.80;22.40
67101;DHT22;54019;61.746;16.106;2023-04-03T10:02:35;24.80;22.10
67101;DHT22;54019;61.746;16.106;2023-04-03T10:05:03;24.80;21.80
67101;DHT22;54019;61.746;16.106;2023-04-03T10:07:33;24.80;21.90
67101;DHT22;54019;61.746;16.106;2023-04-03T10:10:10;24.70;22.00
67101;DHT22;54019;61.746;16.106;2023-04-03T10:12:40;24.70;21.90
67101;DHT22;54019;61.746;16.106;2023-04-03T10:15:12;24.70;22.00
67101;DHT22;54019;61.746;16.106;2023-04-03T10:17:50;24.70;22.00
67101;DHT22;54019;61.746;16.106;2023-04-03T10:20:27;24.70;21.80
67101;DHT22;54019;61.746;16.106;2023-04-03T10:23:02;24.60;21.70
67101;DHT22;54019;61.746;16.106;2023-04-03T10:25:36;24.70;21.80
67101;DHT22;54019;61.746;16.106;2023-04-03T10:28:09;24.60;21.60
67101;DHT22;54019;61.746;16.106;2023-04-03T10:30:44;24.70;21.60
67101;DHT22;54019;61.746;16.106;2023-04-03T10:33:20;24.60;21.50
67101;DHT22;54019;61.746;16.106;2023-04-03T10:35:57;24.60;21.80
67101;DHT22;54019;61.746;16.106;2023-04-03T10:38:33;24.60;21.50
67101;DHT22;54019;61.746;16.106;2023-04-03T10:41:10;24.50;21.70
67101;DHT22;54019;61.746;16.106;2023-04-03T10:43:44;24.50;21.80
67101;DHT22;54019;61.746;16.106;2023-04-03T10:46:16;24.50;22.00
67101;DHT22;54019;61.746;16.106;2023-04-03T10:48:57;24.50;22.20
67101;DHT22;54019;61.746;16.106;2023-04-03T10:51:31;24.50;22.30
67101;DHT22;54019;61.746;16.106;2023-04-03T10:54:05;24.40;23.60
67101;DHT22;54019;61.746;16.106;2023-04-03T10:56:38;24.40;22.90
67101;DHT22;54019;61.746;16.106;2023-04-03T10:59:15;24.50;22.60
67101;DHT22;54019;61.746;16.106;2023-04-03T11:01:45;24.50;23.60
67101;DHT22;54019;61.746;16.106;2023-04-03T11:04:12;24.40;22.70
67101;DHT22;54019;61.746;16.106;2023-04-03T11:06:44;24.40;22.50
67101;DHT22;54019;61.746;16.106;2023-04-03T11:09:19;24.40;23.70
67101;DHT22;54019;61.746;16.106;2023-04-03T11:11:51;24.30;23.00
67101;DHT22;54019;61.746;16.106;2023-04-03T11:14:26;24.30;22.90
67101;DHT22;54019;61.746;16.106;2023-04-03T11:16:59;24.40;22.70
67101;DHT22;54019;61.746;16.106;2023-04-03T11:19:34;24.30;22.90
67101;DHT22;54019;61.746;16.106;2023-04-03T11:22:05;24.20;22.30
67101;DHT22;54019;61.746;16.106;2023-04-03T11:24:35;24.20;21.80
67101;DHT22;54019;61.746;16.106;2023-04-03T11:27:04;24.20;21.50
67101;DHT22;54019;61.746;16.106;2023-04-03T11:29:34;24.10;21.90
67101;DHT22;54019;61.746;16.106;2023-04-03T11:32:25;24.10;22.70
67101;DHT22;54019;61.746;16.106;2023-04-03T11:34:54;24.00;21.60
67101;DHT22;54019;61.746;16.106;2023-04-03T11:37:26;24.00;21.70
67101;DHT22;54019;61.746;16.106;2023-04-03T11:39:56;24.00;21.70
67101;DHT22;54019;61.746;16.106;2023-04-03T11:42:31;24.00;21.50
67101;DHT22;54019;61.746;16.106;2023-04-03T11:45:35;23.90;21.60
67101;DHT22;54019;61.746;16.106;2023-04-03T11:48:03;23.90;21.30
67101;DHT22;54019;61.746;16.106;2023-04-03T11:50:40;23.90;21.00
67101;DHT22;54019;61.746;16.106;2023-04-03T11:53:26;23.90;20.90
67101;DHT22;54019;61.746;16.106;2023-04-03T11:56:00;23.90;20.90
67101;DHT22;54019;61.746;16.106;2023-04-03T11:58:30;23.80;20.70
67101;DHT22;54019;61.746;16.106;2023-04-03T12:01:00;23.80;20.80
67101;DHT22;54019;61.746;16.106;2023-04-03T12:04:07;23.80;21.10
67101;DHT22;54019;61.746;16.106;2023-04-03T12:12:32;23.80;20.90
67101;DHT22;54019;61.746;16.106;2023-04-03T12:15:23;23.80;21.00
67101;DHT22;54019;61.746;16.106;2023-04-03T12:17:49;23.70;21.30
67101;DHT22;54019;61.746;16.106;2023-04-03T12:20:51;23.60;20.40
67101;DHT22;54019;61.746;16.106;2023-04-03T12:23:25;23.60;20.20
67101;DHT22;54019;61.746;16.106;2023-04-03T12:25:52;23.50;20.30
67101;DHT22;54019;61.746;16.106;2023-04-03T12:28:24;23.50;20.70
67101;DHT22;54019;61.746;16.106;2023-04-03T12:30:52;23.40;19.90
67101;DHT22;54019;61.746;16.106;2023-04-03T12:33:24;23.40;20.80
67101;DHT22;54019;61.746;16.106;2023-04-03T12:36:02;23.20;20.40
67101;DHT22;54019;61.746;16.106;2023-04-03T12:41:38;23.20;19.80
67101;DHT22;54019;61.746;16.106;2023-04-03T12:47:19;23.20;19.20
67101;DHT22;54019;61.746;16.106;2023-04-03T12:49:49;23.20;19.10
67101;DHT22;54019;61.746;16.106;2023-04-03T12:52:19;23.20;19.20
67101;DHT22;54019;61.746;16.106;2023-04-03T12:54:48;23.20;19.20
67101;DHT22;54019;61.746;16.106;2023-04-03T12:57:17;23.20;19.10
67101;DHT22;54019;61.746;16.106;2023-04-03T12:59:43;23.20;19.20
67101;DHT22;54019;61.746;16.106;2023-04-03T13:02:21;23.10;19.50
67101;DHT22;54019;61.746;16.106;2023-04-03T13:04:47;23.00;19.70
67101;DHT22;54019;61.746;16.106;2023-04-03T13:07:24;23.00;20.30
67101;DHT22;54019;61.746;16.106;2023-04-03T13:10:03;23.00;20.20
67101;DHT22;54019;61.746;16.106;2023-04-03T13:12:29;23.00;20.00
67101;DHT22;54019;61.746;16.106;2023-04-03T13:14:57;23.00;19.90
67101;DHT22;54019;61.746;16.106;2023-04-03T13:17:25;23.00;20.00
67101;DHT22;54019;61.746;16.106;2023-04-03T13:19:51;23.00;20.10
67101;DHT22;54019;61.746;16.106;2023-04-03T13:22:27;23.00;20.30
67101;DHT22;54019;61.746;16.106;2023-04-03T13:24:54;23.00;20.00
67101;DHT22;54019;61.746;16.106;2023-04-03T13:27:22;23.00;20.00
67101;DHT22;54019;61.746;16.106;2023-04-03T13:29:50;23.00;19.90
67101;DHT22;54019;61.746;16.106;2023-04-03T13:32:19;23.00;20.10
67101;DHT22;54019;61.746;16.106;2023-04-03T13:34:47;23.00;20.00
67101;DHT22;54019;61.746;16.106;2023-04-03T13:37:21;23.00;20.00
67101;DHT22;54019;61.746;16.106;2023-04-03T13:39:58;23.00;19.90
67101;DHT22;54019;61.746;16.106;2023-04-03T13:42:25;23.00;20.10
67101;DHT22;54019;61.746;16.106;2023-04-03T13:45:09;23.00;20.20
67101;DHT22;54019;61.746;16.106;2023-04-03T13:47:39;23.00;20.40
67101;DHT22;54019;61.746;16.106;2023-04-03T13:50:17;23.00;20.40
67101;DHT22;54019;61.746;16.106;2023-04-03T13:52:46;22.90;20.60
67101;DHT22;54019;61.746;16.106;2023-04-03T13:55:20;23.00;21.00
67101;DHT22;54019;61.746;16.106;2023-04-03T13:57:56;23.00;21.20
67101;DHT22;54019;61.746;16.106;2023-04-03T14:00:29;23.00;21.20
67101;DHT22;54019;61.746;16.106;2023-04-03T14:02:55;23.00;21.00
67101;DHT22;54019;61.746;16.106;2023-04-03T14:05:23;23.00;21.10
67101;DHT22;54019;61.746;16.106;2023-04-03T14:07:49;23.00;22.40
67101;DHT22;54019;61.746;16.106;2023-04-03T14:10:15;23.00;22.00
67101;DHT22;54019;61.746;16.106;2023-04-03T14:12:41;23.00;21.80
67101;DHT22;54019;61.746;16.106;2023-04-03T14:15:16;23.00;21.10
67101;DHT22;54019;61.746;16.106;2023-04-03T14:17:43;22.90;21.10
67101;DHT22;54019;61.746;16.106;2023-04-03T14:20:14;22.90;21.30
67101;DHT22;54019;61.746;16.106;2023-04-03T14:22:42;22.80;20.50
67101;DHT22;54019;61.746;16.106;2023-04-03T14:25:08;22.80;20.80
67101;DHT22;54019;61.746;16.106;2023-04-03T14:27:37;22.70;20.80
67101;DHT22;54019;61.746;16.106;2023-04-03T14:30:04;22.80;21.20
67101;DHT22;54019;61.746;16.106;2023-04-03T14:32:32;22.70;21.00
67101;DHT22;54019;61.746;16.106;2023-04-03T14:34:59;22.70;20.90
67101;DHT22;54019;61.746;16.106;2023-04-03T14:37:26;22.70;20.90
67101;DHT22;54019;61.746;16.106;2023-04-03T14:39:54;22.70;20.90
67101;DHT22;54019;61.746;16.106;2023-04-03T14:42:23;22.80;21.80
67101;DHT22;54019;61.746;16.106;2023-04-03T14:44:49;22.90;22.30
67101;DHT22;54019;61.746;16.106;2023-04-03T14:47:19;22.90;22.80
67101;DHT22;54019;61.746;16.106;2023-04-03T14:49:45;22.90;23.00
67101;DHT22;54019;61.746;16.106;2023-04-03T14:52:18;23.00;23.80
67101;DHT22;54019;61.746;16.106;2023-04-03T14:54:44;23.00;23.20
67101;DHT22;54019;61.746;16.106;2023-04-03T14:57:13;23.00;23.80
67101;DHT22;54019;61.746;16.106;2023-04-03T14:59:40;23.00;23.00
67101;DHT22;54019;61.746;16.106;2023-04-03T15:02:27;23.00;22.70
67101;DHT22;54019;61.746;16.106;2023-04-03T15:04:53;23.00;22.80
67101;DHT22;54019;61.746;16.106;2023-04-03T15:07:19;23.00;22.30
67101;DHT22;54019;61.746;16.106;2023-04-03T15:09:45;22.90;22.10
67101;DHT22;54019;61.746;16.106;2023-04-03T15:12:12;22.90;21.90
67101;DHT22;54019;61.746;16.106;2023-04-03T15:14:38;22.90;21.80
67101;DHT22;54019;61.746;16.106;2023-04-03T15:17:04;22.80;21.50
67101;DHT22;54019;61.746;16.106;2023-04-03T15:19:31;22.80;21.40
67101;DHT22;54019;61.746;16.106;2023-04-03T15:22:00;22.80;21.50
67101;DHT22;54019;61.746;16.106;2023-04-03T15:24:26;22.80;21.30
67101;DHT22;54019;61.746;16.106;2023-04-03T15:26:52;22.80;21.40
67101;DHT22;54019;61.746;16.106;2023-04-03T15:29:19;22.70;21.20
67101;DHT22;54019;61.746;16.106;2023-04-03T15:31:45;22.70;21.10
67101;DHT22;54019;61.746;16.106;2023-04-03T15:34:11;22.70;21.00
67101;DHT22;54019;61.746;16.106;2023-04-03T15:36:36;22.70;21.00
67101;DHT22;54019;61.746;16.106;2023-04-03T15:39:03;22.70;21.00
67101;DHT22;54019;61.746;16.106;2023-04-03T15:41:29;22.70;21.00